Caprock, New Mexico
Current Conditions -  °F | °C
As of 8:51 PM on Saturday 22 Nov 2014 (Local Time) from KROW Reporting Station
Clear Clear  
Wind Chill: 45°   Ceiling: Unl
Heat Index: 49°   Visibility: 10mi
Dew Point: 23°   Wind: 10mph
Humidity: 36%   Direction: 210°SSW
Pressure: 29.77"   Gusts: NA
Location:  33.39°N, 103.71°W
Report Text: KROW 230351Z 21009KT 10SM CLR 09/M05 A2977 RMK AO2 SLP050 T00941050
Loading
Personal Weather Stations






























Interactive Weather Map New forecast layout! Learn more

10-Day Weather Forecast

Advertisements
Track Severe Weather on mobile